Terminal Aerodrome Forecast
Issued by NWS

Home | Current Version | Previous Version | Text Only | Print | Product List | Glossary On
Versions: 1 2 3 4 5 6 7 8 9 10 11 12 13 14 15 16 17 18
000
FTUS41 KPBZ 301120
TAFHLG
TAF
KHLG 301120Z 3012/3112 07010KT P6SM SCT060 OVC100
     FM301400 10012KT P6SM VCSH BKN060
     FM302100 12014KT P6SM BKN100
     FM310300 14014KT P6SM VCSH OVC035 WS020/20045KT
     FM310900 16012KT 4SM -RA OVC015 WS020/20045KT=

USA.gov is the U.S. government's official web portal to all federal, state and local government web resources and services.